sensor_id;sensor_type;location;lat;lon;timestamp;P1;durP1;ratioP1;P2;durP2;ratioP2
6197;SDS011;3132;42.622;23.328;2023-06-22T00:01:48;13.90;;;12.60;;
6197;SDS011;3132;42.622;23.328;2023-06-22T00:04:13;13.43;;;12.27;;
6197;SDS011;3132;42.622;23.328;2023-06-22T00:06:39;12.87;;;11.67;;
6197;SDS011;3132;42.622;23.328;2023-06-22T00:09:04;13.60;;;12.57;;
6197;SDS011;3132;42.622;23.328;2023-06-22T00:11:31;14.70;;;13.33;;
6197;SDS011;3132;42.622;23.328;2023-06-22T00:13:58;15.23;;;13.83;;
6197;SDS011;3132;42.622;23.328;2023-06-22T00:16:24;13.37;;;12.17;;
6197;SDS011;3132;42.622;23.328;2023-06-22T00:18:49;12.80;;;11.70;;
6197;SDS011;3132;42.622;23.328;2023-06-22T00:21:14;13.60;;;12.60;;
6197;SDS011;3132;42.622;23.328;2023-06-22T00:23:40;13.70;;;12.50;;
6197;SDS011;3132;42.622;23.328;2023-06-22T00:26:06;13.37;;;12.17;;
6197;SDS011;3132;42.622;23.328;2023-06-22T00:28:32;13.07;;;12.07;;
6197;SDS011;3132;42.622;23.328;2023-06-22T00:30:57;13.67;;;12.63;;
6197;SDS011;3132;42.622;23.328;2023-06-22T00:33:22;13.97;;;12.87;;
6197;SDS011;3132;42.622;23.328;2023-06-22T00:35:48;13.63;;;12.53;;
6197;SDS011;3132;42.622;23.328;2023-06-22T00:38:13;13.97;;;12.87;;
6197;SDS011;3132;42.622;23.328;2023-06-22T00:40:39;12.90;;;11.80;;
6197;SDS011;3132;42.622;23.328;2023-06-22T00:43:04;13.53;;;12.43;;
6197;SDS011;3132;42.622;23.328;2023-06-22T00:45:30;13.87;;;12.77;;
6197;SDS011;3132;42.622;23.328;2023-06-22T00:47:56;13.70;;;12.70;;
6197;SDS011;3132;42.622;23.328;2023-06-22T00:50:23;13.07;;;11.90;;
6197;SDS011;3132;42.622;23.328;2023-06-22T00:52:51;12.93;;;11.73;;
6197;SDS011;3132;42.622;23.328;2023-06-22T00:55:18;13.33;;;12.00;;
6197;SDS011;3132;42.622;23.328;2023-06-22T00:57:46;13.60;;;12.60;;
6197;SDS011;3132;42.622;23.328;2023-06-22T01:00:13;12.90;;;11.87;;
6197;SDS011;3132;42.622;23.328;2023-06-22T01:02:41;13.97;;;12.77;;
6197;SDS011;3132;42.622;23.328;2023-06-22T01:05:11;13.23;;;12.23;;
6197;SDS011;3132;42.622;23.328;2023-06-22T01:16:29;14.47;;;13.37;;
6197;SDS011;3132;42.622;23.328;2023-06-22T01:18:57;13.20;;;12.00;;
6197;SDS011;3132;42.622;23.328;2023-06-22T01:21:34;17.13;;;13.03;;
6197;SDS011;3132;42.622;23.328;2023-06-22T01:27:26;14.17;;;12.83;;
6197;SDS011;3132;42.622;23.328;2023-06-22T01:29:55;13.67;;;12.37;;
6197;SDS011;3132;42.622;23.328;2023-06-22T01:32:26;13.50;;;12.40;;
6197;SDS011;3132;42.622;23.328;2023-06-22T01:34:55;15.10;;;13.63;;
6197;SDS011;3132;42.622;23.328;2023-06-22T01:37:22;13.73;;;12.63;;
6197;SDS011;3132;42.622;23.328;2023-06-22T01:39:48;13.97;;;12.87;;
6197;SDS011;3132;42.622;23.328;2023-06-22T01:42:13;13.07;;;12.07;;
6197;SDS011;3132;42.622;23.328;2023-06-22T01:44:39;14.80;;;13.50;;
6197;SDS011;3132;42.622;23.328;2023-06-22T01:47:05;13.20;;;12.27;;
6197;SDS011;3132;42.622;23.328;2023-06-22T01:49:32;13.80;;;12.53;;
6197;SDS011;3132;42.622;23.328;2023-06-22T01:51:57;14.27;;;13.17;;
6197;SDS011;3132;42.622;23.328;2023-06-22T01:54:23;12.57;;;11.57;;
6197;SDS011;3132;42.622;23.328;2023-06-22T01:56:49;13.10;;;12.07;;
6197;SDS011;3132;42.622;23.328;2023-06-22T01:59:20;14.10;;;12.83;;
6197;SDS011;3132;42.622;23.328;2023-06-22T02:01:58;13.20;;;12.10;;
6197;SDS011;3132;42.622;23.328;2023-06-22T02:04:49;14.60;;;13.40;;
6197;SDS011;3132;42.622;23.328;2023-06-22T02:07:20;14.70;;;13.50;;
6197;SDS011;3132;42.622;23.328;2023-06-22T02:09:48;13.93;;;12.90;;
6197;SDS011;3132;42.622;23.328;2023-06-22T02:12:18;14.83;;;13.63;;
6197;SDS011;3132;42.622;23.328;2023-06-22T02:14:48;14.43;;;13.17;;
6197;SDS011;3132;42.622;23.328;2023-06-22T02:17:13;14.50;;;13.30;;
6197;SDS011;3132;42.622;23.328;2023-06-22T02:19:42;13.60;;;12.50;;
6197;SDS011;3132;42.622;23.328;2023-06-22T02:22:08;14.07;;;12.97;;
6197;SDS011;3132;42.622;23.328;2023-06-22T02:24:33;14.47;;;13.20;;
6197;SDS011;3132;42.622;23.328;2023-06-22T02:26:59;14.40;;;13.10;;
6197;SDS011;3132;42.622;23.328;2023-06-22T02:29:26;13.90;;;12.53;;
6197;SDS011;3132;42.622;23.328;2023-06-22T02:31:52;13.20;;;12.13;;
6197;SDS011;3132;42.622;23.328;2023-06-22T02:34:18;15.70;;;14.27;;
6197;SDS011;3132;42.622;23.328;2023-06-22T02:36:47;15.93;;;14.63;;
6197;SDS011;3132;42.622;23.328;2023-06-22T02:39:20;15.50;;;13.90;;
6197;SDS011;3132;42.622;23.328;2023-06-22T02:41:50;13.83;;;12.63;;
6197;SDS011;3132;42.622;23.328;2023-06-22T02:44:17;15.30;;;14.00;;
6197;SDS011;3132;42.622;23.328;2023-06-22T02:46:43;13.57;;;12.43;;
6197;SDS011;3132;42.622;23.328;2023-06-22T02:49:09;14.50;;;13.27;;
6197;SDS011;3132;42.622;23.328;2023-06-22T02:51:35;14.23;;;13.13;;
6197;SDS011;3132;42.622;23.328;2023-06-22T02:54:04;14.63;;;13.43;;
6197;SDS011;3132;42.622;23.328;2023-06-22T02:56:30;15.83;;;14.33;;
6197;SDS011;3132;42.622;23.328;2023-06-22T02:58:55;14.27;;;13.17;;
6197;SDS011;3132;42.622;23.328;2023-06-22T03:01:25;14.00;;;12.90;;
6197;SDS011;3132;42.622;23.328;2023-06-22T03:03:52;15.10;;;13.53;;
6197;SDS011;3132;42.622;23.328;2023-06-22T03:06:18;15.90;;;14.33;;
6197;SDS011;3132;42.622;23.328;2023-06-22T03:08:51;16.47;;;14.87;;
6197;SDS011;3132;42.622;23.328;2023-06-22T03:11:17;15.53;;;13.97;;
6197;SDS011;3132;42.622;23.328;2023-06-22T03:13:42;14.93;;;13.53;;
6197;SDS011;3132;42.622;23.328;2023-06-22T03:16:08;16.40;;;14.87;;
6197;SDS011;3132;42.622;23.328;2023-06-22T03:18:34;15.80;;;14.37;;
6197;SDS011;3132;42.622;23.328;2023-06-22T03:20:59;17.73;;;14.30;;
6197;SDS011;3132;42.622;23.328;2023-06-22T03:23:28;17.73;;;14.17;;
6197;SDS011;3132;42.622;23.328;2023-06-22T03:25:53;15.23;;;13.83;;
6197;SDS011;3132;42.622;23.328;2023-06-22T03:28:20;15.90;;;14.17;;
6197;SDS011;3132;42.622;23.328;2023-06-22T03:30:46;15.57;;;14.27;;
6197;SDS011;3132;42.622;23.328;2023-06-22T03:33:12;16.20;;;14.60;;
6197;SDS011;3132;42.622;23.328;2023-06-22T03:35:37;16.57;;;15.17;;
6197;SDS011;3132;42.622;23.328;2023-06-22T03:38:03;16.63;;;15.13;;
6197;SDS011;3132;42.622;23.328;2023-06-22T03:40:29;17.03;;;15.30;;
6197;SDS011;3132;42.622;23.328;2023-06-22T03:42:54;14.93;;;13.40;;
6197;SDS011;3132;42.622;23.328;2023-06-22T03:45:20;16.13;;;14.43;;
6197;SDS011;3132;42.622;23.328;2023-06-22T03:47:45;17.17;;;15.37;;
6197;SDS011;3132;42.622;23.328;2023-06-22T03:50:10;16.20;;;14.73;;
6197;SDS011;3132;42.622;23.328;2023-06-22T03:52:36;16.92;;;14.38;;
6197;SDS011;3132;42.622;23.328;2023-06-22T03:55:01;15.57;;;14.17;;
6197;SDS011;3132;42.622;23.328;2023-06-22T03:57:27;15.23;;;13.93;;
6197;SDS011;3132;42.622;23.328;2023-06-22T03:59:54;18.30;;;16.50;;
6197;SDS011;3132;42.622;23.328;2023-06-22T04:02:21;17.58;;;15.98;;
6197;SDS011;3132;42.622;23.328;2023-06-22T04:04:46;16.50;;;14.95;;
6197;SDS011;3132;42.622;23.328;2023-06-22T04:07:12;18.05;;;15.50;;
6197;SDS011;3132;42.622;23.328;2023-06-22T04:09:37;20.92;;;16.10;;
6197;SDS011;3132;42.622;23.328;2023-06-22T04:12:03;16.48;;;15.07;;
6197;SDS011;3132;42.622;23.328;2023-06-22T04:14:28;18.67;;;16.73;;
6197;SDS011;3132;42.622;23.328;2023-06-22T04:16:54;17.60;;;15.80;;
6197;SDS011;3132;42.622;23.328;2023-06-22T04:19:19;18.85;;;16.73;;
6197;SDS011;3132;42.622;23.328;2023-06-22T04:21:45;23.90;;;17.00;;
6197;SDS011;3132;42.622;23.328;2023-06-22T04:24:13;20.65;;;18.55;;
6197;SDS011;3132;42.622;23.328;2023-06-22T04:26:39;18.58;;;16.58;;
6197;SDS011;3132;42.622;23.328;2023-06-22T04:29:06;18.27;;;16.17;;
6197;SDS011;3132;42.622;23.328;2023-06-22T04:31:36;18.35;;;14.98;;
6197;SDS011;3132;42.622;23.328;2023-06-22T04:34:06;17.13;;;15.50;;
6197;SDS011;3132;42.622;23.328;2023-06-22T04:36:33;16.65;;;14.82;;
6197;SDS011;3132;42.622;23.328;2023-06-22T04:39:11;16.80;;;15.13;;
6197;SDS011;3132;42.622;23.328;2023-06-22T04:41:38;21.50;;;15.60;;
6197;SDS011;3132;42.622;23.328;2023-06-22T04:44:14;17.48;;;15.77;;
6197;SDS011;3132;42.622;23.328;2023-06-22T04:46:50;18.27;;;15.75;;
6197;SDS011;3132;42.622;23.328;2023-06-22T04:49:19;17.60;;;15.88;;
6197;SDS011;3132;42.622;23.328;2023-06-22T04:51:46;19.23;;;15.25;;
6197;SDS011;3132;42.622;23.328;2023-06-22T04:54:12;19.63;;;15.52;;
6197;SDS011;3132;42.622;23.328;2023-06-22T04:56:38;24.23;;;15.88;;
6197;SDS011;3132;42.622;23.328;2023-06-22T04:59:05;17.80;;;16.00;;
6197;SDS011;3132;42.622;23.328;2023-06-22T05:01:31;18.38;;;16.55;;
6197;SDS011;3132;42.622;23.328;2023-06-22T05:03:57;17.90;;;16.10;;
6197;SDS011;3132;42.622;23.328;2023-06-22T05:06:25;18.25;;;15.48;;
6197;SDS011;3132;42.622;23.328;2023-06-22T05:08:54;22.13;;;17.33;;
6197;SDS011;3132;42.622;23.328;2023-06-22T05:11:27;17.55;;;15.80;;
6197;SDS011;3132;42.622;23.328;2023-06-22T05:13:52;22.17;;;16.77;;
6197;SDS011;3132;42.622;23.328;2023-06-22T05:16:18;17.33;;;15.57;;
6197;SDS011;3132;42.622;23.328;2023-06-22T05:18:49;18.85;;;16.45;;
6197;SDS011;3132;42.622;23.328;2023-06-22T05:21:15;17.15;;;15.23;;
6197;SDS011;3132;42.622;23.328;2023-06-22T05:23:40;19.05;;;15.80;;
6197;SDS011;3132;42.622;23.328;2023-06-22T05:26:06;19.15;;;15.40;;
6197;SDS011;3132;42.622;23.328;2023-06-22T05:28:34;20.48;;;15.60;;
6197;SDS011;3132;42.622;23.328;2023-06-22T05:30:59;17.77;;;15.30;;
6197;SDS011;3132;42.622;23.328;2023-06-22T05:33:25;17.65;;;14.93;;
6197;SDS011;3132;42.622;23.328;2023-06-22T05:35:50;17.02;;;15.27;;
6197;SDS011;3132;42.622;23.328;2023-06-22T05:38:16;16.40;;;14.80;;
6197;SDS011;3132;42.622;23.328;2023-06-22T05:40:41;17.15;;;15.35;;
6197;SDS011;3132;42.622;23.328;2023-06-22T05:43:06;16.65;;;15.13;;
6197;SDS011;3132;42.622;23.328;2023-06-22T05:45:32;18.70;;;14.10;;
6197;SDS011;3132;42.622;23.328;2023-06-22T05:47:57;17.50;;;13.93;;
6197;SDS011;3132;42.622;23.328;2023-06-22T05:50:22;17.85;;;13.85;;
6197;SDS011;3132;42.622;23.328;2023-06-22T05:52:48;18.20;;;14.43;;
6197;SDS011;3132;42.622;23.328;2023-06-22T05:55:13;18.10;;;13.68;;
6197;SDS011;3132;42.622;23.328;2023-06-22T05:57:40;21.98;;;14.25;;
6197;SDS011;3132;42.622;23.328;2023-06-22T06:00:06;16.10;;;12.90;;
6197;SDS011;3132;42.622;23.328;2023-06-22T06:02:36;17.10;;;13.40;;
6197;SDS011;3132;42.622;23.328;2023-06-22T06:05:01;16.65;;;12.57;;
6197;SDS011;3132;42.622;23.328;2023-06-22T06:07:28;18.27;;;13.55;;
6197;SDS011;3132;42.622;23.328;2023-06-22T06:09:54;20.73;;;13.90;;
6197;SDS011;3132;42.622;23.328;2023-06-22T06:12:19;20.48;;;14.63;;
6197;SDS011;3132;42.622;23.328;2023-06-22T06:14:45;15.05;;;13.65;;
6197;SDS011;3132;42.622;23.328;2023-06-22T06:17:10;15.55;;;13.93;;
6197;SDS011;3132;42.622;23.328;2023-06-22T06:19:36;20.50;;;13.50;;
6197;SDS011;3132;42.622;23.328;2023-06-22T06:22:01;15.27;;;13.27;;
6197;SDS011;3132;42.622;23.328;2023-06-22T06:24:26;16.85;;;13.25;;
6197;SDS011;3132;42.622;23.328;2023-06-22T06:26:52;17.67;;;13.80;;
6197;SDS011;3132;42.622;23.328;2023-06-22T06:29:17;21.08;;;13.68;;
6197;SDS011;3132;42.622;23.328;2023-06-22T06:31:43;20.83;;;13.00;;
6197;SDS011;3132;42.622;23.328;2023-06-22T06:34:08;14.68;;;13.25;;
6197;SDS011;3132;42.622;23.328;2023-06-22T06:36:33;14.20;;;12.82;;
6197;SDS011;3132;42.622;23.328;2023-06-22T06:38:59;14.57;;;13.10;;
6197;SDS011;3132;42.622;23.328;2023-06-22T06:41:24;16.58;;;13.45;;
6197;SDS011;3132;42.622;23.328;2023-06-22T06:43:49;14.10;;;12.48;;
6197;SDS011;3132;42.622;23.328;2023-06-22T06:46:15;13.27;;;11.90;;
6197;SDS011;3132;42.622;23.328;2023-06-22T06:48:40;14.27;;;12.77;;
6197;SDS011;3132;42.622;23.328;2023-06-22T06:51:06;14.90;;;13.27;;
6197;SDS011;3132;42.622;23.328;2023-06-22T06:53:34;13.93;;;12.63;;
6197;SDS011;3132;42.622;23.328;2023-06-22T06:56:00;16.83;;;13.30;;
6197;SDS011;3132;42.622;23.328;2023-06-22T06:58:26;16.83;;;14.20;;
6197;SDS011;3132;42.622;23.328;2023-06-22T07:00:51;19.38;;;13.63;;
6197;SDS011;3132;42.622;23.328;2023-06-22T07:03:16;17.58;;;13.75;;
6197;SDS011;3132;42.622;23.328;2023-06-22T07:05:42;19.98;;;14.05;;
6197;SDS011;3132;42.622;23.328;2023-06-22T07:08:07;21.40;;;14.73;;
6197;SDS011;3132;42.622;23.328;2023-06-22T07:10:32;17.25;;;15.50;;
6197;SDS011;3132;42.622;23.328;2023-06-22T07:12:58;16.77;;;15.10;;
6197;SDS011;3132;42.622;23.328;2023-06-22T07:15:23;16.95;;;15.35;;
6197;SDS011;3132;42.622;23.328;2023-06-22T07:17:49;20.38;;;15.85;;
6197;SDS011;3132;42.622;23.328;2023-06-22T07:20:14;18.67;;;16.35;;
6197;SDS011;3132;42.622;23.328;2023-06-22T07:22:40;19.13;;;15.77;;
6197;SDS011;3132;42.622;23.328;2023-06-22T07:25:09;19.73;;;14.63;;
6197;SDS011;3132;42.622;23.328;2023-06-22T07:27:38;16.75;;;14.68;;
6197;SDS011;3132;42.622;23.328;2023-06-22T07:30:08;15.82;;;14.13;;
6197;SDS011;3132;42.622;23.328;2023-06-22T07:32:34;16.05;;;14.43;;
6197;SDS011;3132;42.622;23.328;2023-06-22T07:35:00;16.65;;;14.95;;
6197;SDS011;3132;42.622;23.328;2023-06-22T07:37:27;17.17;;;15.48;;
6197;SDS011;3132;42.622;23.328;2023-06-22T07:39:54;16.40;;;14.80;;
6197;SDS011;3132;42.622;23.328;2023-06-22T07:42:24;18.63;;;15.35;;
6197;SDS011;3132;42.622;23.328;2023-06-22T07:44:52;17.73;;;16.13;;
6197;SDS011;3132;42.622;23.328;2023-06-22T07:47:18;17.63;;;15.85;;
6197;SDS011;3132;42.622;23.328;2023-06-22T07:49:44;16.13;;;14.70;;
6197;SDS011;3132;42.622;23.328;2023-06-22T07:52:10;19.17;;;17.17;;
6197;SDS011;3132;42.622;23.328;2023-06-22T07:54:36;18.52;;;16.73;;
6197;SDS011;3132;42.622;23.328;2023-06-22T07:57:01;17.55;;;15.88;;
6197;SDS011;3132;42.622;23.328;2023-06-22T07:59:26;18.05;;;16.42;;
6197;SDS011;3132;42.622;23.328;2023-06-22T08:01:52;17.52;;;15.82;;
6197;SDS011;3132;42.622;23.328;2023-06-22T08:04:17;18.08;;;16.33;;
6197;SDS011;3132;42.622;23.328;2023-06-22T08:06:42;21.23;;;17.30;;
6197;SDS011;3132;42.622;23.328;2023-06-22T08:09:08;20.80;;;17.67;;
6197;SDS011;3132;42.622;23.328;2023-06-22T08:11:34;18.52;;;16.65;;
6197;SDS011;3132;42.622;23.328;2023-06-22T08:13:59;17.38;;;15.73;;
6197;SDS011;3132;42.622;23.328;2023-06-22T08:16:25;17.83;;;16.00;;
6197;SDS011;3132;42.622;23.328;2023-06-22T08:18:50;21.13;;;17.02;;
6197;SDS011;3132;42.622;23.328;2023-06-22T08:21:15;26.38;;;16.77;;
6197;SDS011;3132;42.622;23.328;2023-06-22T08:23:42;19.73;;;15.65;;
6197;SDS011;3132;42.622;23.328;2023-06-22T08:26:07;17.65;;;15.63;;
6197;SDS011;3132;42.622;23.328;2023-06-22T08:28:32;17.20;;;15.55;;
6197;SDS011;3132;42.622;23.328;2023-06-22T08:30:59;16.48;;;14.93;;
6197;SDS011;3132;42.622;23.328;2023-06-22T08:33:25;16.60;;;15.05;;
6197;SDS011;3132;42.622;23.328;2023-06-22T08:35:54;20.70;;;15.10;;
6197;SDS011;3132;42.622;23.328;2023-06-22T08:38:20;17.45;;;15.85;;
6197;SDS011;3132;42.622;23.328;2023-06-22T08:40:45;17.73;;;15.85;;
6197;SDS011;3132;42.622;23.328;2023-06-22T08:43:11;16.75;;;14.98;;
6197;SDS011;3132;42.622;23.328;2023-06-22T08:45:36;16.10;;;14.35;;
6197;SDS011;3132;42.622;23.328;2023-06-22T08:48:02;15.95;;;14.32;;
6197;SDS011;3132;42.622;23.328;2023-06-22T08:50:27;17.08;;;15.27;;
6197;SDS011;3132;42.622;23.328;2023-06-22T08:52:52;15.82;;;14.38;;
6197;SDS011;3132;42.622;23.328;2023-06-22T08:55:18;16.48;;;14.90;;
6197;SDS011;3132;42.622;23.328;2023-06-22T08:57:43;15.88;;;14.45;;
6197;SDS011;3132;42.622;23.328;2023-06-22T09:00:09;17.73;;;15.23;;
6197;SDS011;3132;42.622;23.328;2023-06-22T09:02:41;17.20;;;15.05;;
6197;SDS011;3132;42.622;23.328;2023-06-22T09:05:07;17.35;;;15.55;;
6197;SDS011;3132;42.622;23.328;2023-06-22T09:07:33;16.55;;;14.90;;
6197;SDS011;3132;42.622;23.328;2023-06-22T09:09:59;17.42;;;14.77;;
6197;SDS011;3132;42.622;23.328;2023-06-22T09:12:25;17.40;;;15.73;;
6197;SDS011;3132;42.622;23.328;2023-06-22T09:14:52;19.55;;;14.77;;
6197;SDS011;3132;42.622;23.328;2023-06-22T09:17:18;17.00;;;15.52;;
6197;SDS011;3132;42.622;23.328;2023-06-22T09:19:43;17.05;;;14.57;;
6197;SDS011;3132;42.622;23.328;2023-06-22T09:22:09;18.20;;;16.33;;
6197;SDS011;3132;42.622;23.328;2023-06-22T09:24:34;16.65;;;14.70;;
6197;SDS011;3132;42.622;23.328;2023-06-22T09:27:00;15.27;;;13.77;;
6197;SDS011;3132;42.622;23.328;2023-06-22T09:29:25;15.57;;;14.10;;
6197;SDS011;3132;42.622;23.328;2023-06-22T09:31:51;15.65;;;13.60;;
6197;SDS011;3132;42.622;23.328;2023-06-22T09:34:18;16.48;;;14.93;;
6197;SDS011;3132;42.622;23.328;2023-06-22T09:36:45;15.73;;;14.15;;
6197;SDS011;3132;42.622;23.328;2023-06-22T09:39:11;16.63;;;15.07;;
6197;SDS011;3132;42.622;23.328;2023-06-22T09:41:36;15.07;;;13.77;;
6197;SDS011;3132;42.622;23.328;2023-06-22T09:44:02;15.93;;;14.32;;
6197;SDS011;3132;42.622;23.328;2023-06-22T09:46:27;15.77;;;14.27;;
6197;SDS011;3132;42.622;23.328;2023-06-22T09:48:53;15.30;;;13.68;;
6197;SDS011;3132;42.622;23.328;2023-06-22T09:51:19;16.85;;;14.05;;
6197;SDS011;3132;42.622;23.328;2023-06-22T09:53:46;15.70;;;14.05;;
6197;SDS011;3132;42.622;23.328;2023-06-22T09:56:12;15.82;;;14.35;;
6197;SDS011;3132;42.622;23.328;2023-06-22T09:58:40;15.30;;;13.90;;
6197;SDS011;3132;42.622;23.328;2023-06-22T10:01:06;15.65;;;14.10;;
6197;SDS011;3132;42.622;23.328;2023-06-22T10:03:32;15.30;;;13.88;;
6197;SDS011;3132;42.622;23.328;2023-06-22T10:05:57;16.55;;;14.52;;
6197;SDS011;3132;42.622;23.328;2023-06-22T10:08:23;15.10;;;13.57;;
6197;SDS011;3132;42.622;23.328;2023-06-22T10:10:48;15.32;;;14.10;;
6197;SDS011;3132;42.622;23.328;2023-06-22T10:13:13;14.40;;;13.13;;
6197;SDS011;3132;42.622;23.328;2023-06-22T10:15:39;14.70;;;13.32;;
6197;SDS011;3132;42.622;23.328;2023-06-22T10:18:05;13.95;;;12.75;;
6197;SDS011;3132;42.622;23.328;2023-06-22T10:20:30;16.52;;;14.48;;
6197;SDS011;3132;42.622;23.328;2023-06-22T10:22:56;14.80;;;13.57;;
6197;SDS011;3132;42.622;23.328;2023-06-22T10:25:21;15.65;;;14.25;;
6197;SDS011;3132;42.622;23.328;2023-06-22T10:27:47;15.82;;;12.73;;
6197;SDS011;3132;42.622;23.328;2023-06-22T10:30:13;15.13;;;13.48;;
6197;SDS011;3132;42.622;23.328;2023-06-22T10:32:39;14.32;;;13.10;;
6197;SDS011;3132;42.622;23.328;2023-06-22T10:35:05;15.88;;;13.38;;
6197;SDS011;3132;42.622;23.328;2023-06-22T10:37:31;13.88;;;12.68;;
6197;SDS011;3132;42.622;23.328;2023-06-22T10:39:57;13.57;;;12.38;;
6197;SDS011;3132;42.622;23.328;2023-06-22T10:42:23;15.38;;;13.88;;
6197;SDS011;3132;42.622;23.328;2023-06-22T10:44:48;14.63;;;13.43;;
6197;SDS011;3132;42.622;23.328;2023-06-22T10:47:14;15.07;;;13.68;;
6197;SDS011;3132;42.622;23.328;2023-06-22T10:49:39;14.68;;;13.27;;
6197;SDS011;3132;42.622;23.328;2023-06-22T10:52:05;15.82;;;14.32;;
6197;SDS011;3132;42.622;23.328;2023-06-22T10:54:32;15.13;;;13.82;;
6197;SDS011;3132;42.622;23.328;2023-06-22T10:56:59;15.50;;;13.90;;
6197;SDS011;3132;42.622;23.328;2023-06-22T10:59:24;15.20;;;13.88;;
6197;SDS011;3132;42.622;23.328;2023-06-22T11:01:51;14.98;;;13.68;;
6197;SDS011;3132;42.622;23.328;2023-06-22T11:04:16;15.57;;;14.18;;
6197;SDS011;3132;42.622;23.328;2023-06-22T11:06:42;15.13;;;13.82;;
6197;SDS011;3132;42.622;23.328;2023-06-22T11:09:08;14.88;;;13.65;;
6197;SDS011;3132;42.622;23.328;2023-06-22T11:11:33;15.20;;;13.75;;
6197;SDS011;3132;42.622;23.328;2023-06-22T11:13:59;16.20;;;14.68;;
6197;SDS011;3132;42.622;23.328;2023-06-22T11:16:24;15.13;;;13.73;;
6197;SDS011;3132;42.622;23.328;2023-06-22T11:18:50;15.73;;;14.32;;
6197;SDS011;3132;42.622;23.328;2023-06-22T11:21:15;15.45;;;13.27;;
6197;SDS011;3132;42.622;23.328;2023-06-22T11:23:41;14.85;;;13.32;;
6197;SDS011;3132;42.622;23.328;2023-06-22T11:26:07;15.32;;;13.65;;
6197;SDS011;3132;42.622;23.328;2023-06-22T11:28:32;14.55;;;13.15;;
6197;SDS011;3132;42.622;23.328;2023-06-22T11:30:58;14.75;;;13.27;;
6197;SDS011;3132;42.622;23.328;2023-06-22T11:33:23;15.32;;;13.93;;
6197;SDS011;3132;42.622;23.328;2023-06-22T11:35:49;14.57;;;13.48;;
6197;SDS011;3132;42.622;23.328;2023-06-22T11:38:14;14.80;;;13.40;;
6197;SDS011;3132;42.622;23.328;2023-06-22T11:40:40;14.80;;;12.98;;
6197;SDS011;3132;42.622;23.328;2023-06-22T11:43:05;13.55;;;12.30;;
6197;SDS011;3132;42.622;23.328;2023-06-22T11:45:30;13.35;;;12.15;;
6197;SDS011;3132;42.622;23.328;2023-06-22T11:47:56;14.45;;;13.15;;
6197;SDS011;3132;42.622;23.328;2023-06-22T11:50:21;16.10;;;14.50;;
6197;SDS011;3132;42.622;23.328;2023-06-22T11:52:47;14.95;;;13.75;;
6197;SDS011;3132;42.622;23.328;2023-06-22T11:55:12;16.13;;;14.65;;
6197;SDS011;3132;42.622;23.328;2023-06-22T11:57:38;14.77;;;13.20;;
6197;SDS011;3132;42.622;23.328;2023-06-22T12:00:18;16.20;;;14.60;;
6197;SDS011;3132;42.622;23.328;2023-06-22T12:02:44;15.88;;;14.23;;
6197;SDS011;3132;42.622;23.328;2023-06-22T12:05:12;15.98;;;14.48;;
6197;SDS011;3132;42.622;23.328;2023-06-22T12:07:37;16.02;;;14.48;;
6197;SDS011;3132;42.622;23.328;2023-06-22T12:10:03;15.02;;;13.55;;
6197;SDS011;3132;42.622;23.328;2023-06-22T12:12:29;16.38;;;14.57;;
6197;SDS011;3132;42.622;23.328;2023-06-22T12:14:54;15.25;;;13.70;;
6197;SDS011;3132;42.622;23.328;2023-06-22T12:17:20;15.85;;;14.35;;
6197;SDS011;3132;42.622;23.328;2023-06-22T12:19:45;19.52;;;14.15;;
6197;SDS011;3132;42.622;23.328;2023-06-22T12:22:11;21.52;;;14.07;;
6197;SDS011;3132;42.622;23.328;2023-06-22T12:24:36;14.50;;;13.00;;
6197;SDS011;3132;42.622;23.328;2023-06-22T12:27:01;16.42;;;13.80;;
6197;SDS011;3132;42.622;23.328;2023-06-22T12:29:28;15.23;;;13.55;;
6197;SDS011;3132;42.622;23.328;2023-06-22T12:31:53;21.25;;;14.70;;
6197;SDS011;3132;42.622;23.328;2023-06-22T12:34:19;15.02;;;13.43;;
6197;SDS011;3132;42.622;23.328;2023-06-22T12:36:44;14.85;;;13.45;;
6197;SDS011;3132;42.622;23.328;2023-06-22T12:39:11;17.50;;;13.68;;
6197;SDS011;3132;42.622;23.328;2023-06-22T12:41:36;15.70;;;14.10;;
6197;SDS011;3132;42.622;23.328;2023-06-22T12:44:02;17.25;;;15.45;;
6197;SDS011;3132;42.622;23.328;2023-06-22T12:46:27;20.20;;;16.65;;
6197;SDS011;3132;42.622;23.328;2023-06-22T12:48:52;26.70;;;18.13;;
6197;SDS011;3132;42.622;23.328;2023-06-22T12:51:21;19.85;;;17.90;;
6197;SDS011;3132;42.622;23.328;2023-06-22T12:53:47;23.55;;;18.33;;
6197;SDS011;3132;42.622;23.328;2023-06-22T12:56:12;21.35;;;19.25;;
6197;SDS011;3132;42.622;23.328;2023-06-22T12:58:38;21.17;;;18.98;;
6197;SDS011;3132;42.622;23.328;2023-06-22T13:01:03;22.13;;;17.92;;
6197;SDS011;3132;42.622;23.328;2023-06-22T13:03:28;21.23;;;19.20;;
6197;SDS011;3132;42.622;23.328;2023-06-22T13:05:54;21.02;;;18.10;;
6197;SDS011;3132;42.622;23.328;2023-06-22T13:08:19;19.52;;;17.73;;
6197;SDS011;3132;42.622;23.328;2023-06-22T13:10:45;21.33;;;19.15;;
6197;SDS011;3132;42.622;23.328;2023-06-22T13:13:10;25.90;;;23.58;;
6197;SDS011;3132;42.622;23.328;2023-06-22T13:15:36;20.05;;;17.05;;
6197;SDS011;3132;42.622;23.328;2023-06-22T13:18:01;23.20;;;19.17;;
6197;SDS011;3132;42.622;23.328;2023-06-22T13:20:28;22.85;;;17.80;;
6197;SDS011;3132;42.622;23.328;2023-06-22T13:22:54;19.58;;;17.60;;
6197;SDS011;3132;42.622;23.328;2023-06-22T13:25:20;19.08;;;16.52;;
6197;SDS011;3132;42.622;23.328;2023-06-22T13:27:48;18.95;;;16.95;;
6197;SDS011;3132;42.622;23.328;2023-06-22T13:30:14;19.23;;;17.40;;
6197;SDS011;3132;42.622;23.328;2023-06-22T13:32:40;20.02;;;17.80;;
6197;SDS011;3132;42.622;23.328;2023-06-22T13:35:07;21.40;;;17.13;;
6197;SDS011;3132;42.622;23.328;2023-06-22T13:37:33;20.10;;;17.75;;
6197;SDS011;3132;42.622;23.328;2023-06-22T13:39:59;19.33;;;17.48;;
6197;SDS011;3132;42.622;23.328;2023-06-22T13:42:24;19.25;;;17.30;;
6197;SDS011;3132;42.622;23.328;2023-06-22T13:44:50;19.00;;;17.20;;
6197;SDS011;3132;42.622;23.328;2023-06-22T13:47:15;24.13;;;21.67;;
6197;SDS011;3132;42.622;23.328;2023-06-22T13:49:41;20.63;;;18.63;;
6197;SDS011;3132;42.622;23.328;2023-06-22T13:52:06;19.42;;;17.42;;
6197;SDS011;3132;42.622;23.328;2023-06-22T13:54:35;23.00;;;17.98;;
6197;SDS011;3132;42.622;23.328;2023-06-22T13:57:01;19.50;;;17.40;;
6197;SDS011;3132;42.622;23.328;2023-06-22T13:59:27;19.38;;;17.48;;
6197;SDS011;3132;42.622;23.328;2023-06-22T14:01:53;19.42;;;17.15;;
6197;SDS011;3132;42.622;23.328;2023-06-22T14:04:18;18.70;;;16.90;;
6197;SDS011;3132;42.622;23.328;2023-06-22T14:06:44;20.42;;;18.33;;
6197;SDS011;3132;42.622;23.328;2023-06-22T14:09:09;18.52;;;16.52;;
6197;SDS011;3132;42.622;23.328;2023-06-22T14:11:35;18.58;;;16.65;;
6197;SDS011;3132;42.622;23.328;2023-06-22T14:14:00;17.13;;;15.43;;
6197;SDS011;3132;42.622;23.328;2023-06-22T14:16:25;19.85;;;16.58;;
6197;SDS011;3132;42.622;23.328;2023-06-22T14:18:51;19.35;;;17.45;;
6197;SDS011;3132;42.622;23.328;2023-06-22T14:21:16;19.50;;;17.58;;
6197;SDS011;3132;42.622;23.328;2023-06-22T14:23:42;19.90;;;17.90;;
6197;SDS011;3132;42.622;23.328;2023-06-22T14:26:12;18.75;;;17.05;;
6197;SDS011;3132;42.622;23.328;2023-06-22T14:28:37;19.02;;;16.33;;
6197;SDS011;3132;42.622;23.328;2023-06-22T14:31:03;18.27;;;16.50;;
6197;SDS011;3132;42.622;23.328;2023-06-22T14:33:28;18.20;;;16.30;;
6197;SDS011;3132;42.622;23.328;2023-06-22T14:35:53;18.65;;;17.00;;
6197;SDS011;3132;42.622;23.328;2023-06-22T14:38:19;18.60;;;17.00;;
6197;SDS011;3132;42.622;23.328;2023-06-22T14:40:44;18.55;;;16.67;;